sensor_id;sensor_type;location;lat;lon;timestamp;pressure;altitude;pressure_sealevel;temperature;humidity
64886;BME280;51514;52.206;5.114;2023-04-24T00:00:30;99810.19;;;11.43;100.00
64886;BME280;51514;52.206;5.114;2023-04-24T00:02:56;99823.69;;;11.43;100.00
64886;BME280;51514;52.206;5.114;2023-04-24T00:05:23;99829.09;;;11.43;100.00
64886;BME280;51514;52.206;5.114;2023-04-24T00:07:49;99831.78;;;11.43;100.00
64886;BME280;51514;52.206;5.114;2023-04-24T00:10:17;99841.75;;;11.43;100.00
64886;BME280;51514;52.206;5.114;2023-04-24T00:12:43;99850.50;;;11.45;100.00
64886;BME280;51514;52.206;5.114;2023-04-24T00:15:08;99851.13;;;11.47;100.00
64886;BME280;51514;52.206;5.114;2023-04-24T00:17:34;99859.44;;;11.45;100.00
64886;BME280;51514;52.206;5.114;2023-04-24T00:19:59;99863.34;;;11.43;100.00
64886;BME280;51514;52.206;5.114;2023-04-24T00:22:26;99868.72;;;11.43;100.00
64886;BME280;51514;52.206;5.114;2023-04-24T00:24:51;99883.25;;;11.42;100.00
64886;BME280;51514;52.206;5.114;2023-04-24T00:27:17;99881.75;;;11.39;100.00
64886;BME280;51514;52.206;5.114;2023-04-24T00:29:42;99885.88;;;11.35;100.00
64886;BME280;51514;52.206;5.114;2023-04-24T00:32:07;99884.38;;;11.32;100.00
64886;BME280;51514;52.206;5.114;2023-04-24T00:34:33;99888.09;;;11.31;100.00
64886;BME280;51514;52.206;5.114;2023-04-24T00:36:58;99888.09;;;11.31;100.00
64886;BME280;51514;52.206;5.114;2023-04-24T00:39:23;99889.13;;;11.30;100.00
64886;BME280;51514;52.206;5.114;2023-04-24T00:41:49;99900.09;;;11.29;100.00
64886;BME280;51514;52.206;5.114;2023-04-24T00:44:16;99900.94;;;11.29;100.00
64886;BME280;51514;52.206;5.114;2023-04-24T00:46:42;99905.97;;;11.32;100.00
64886;BME280;51514;52.206;5.114;2023-04-24T00:49:07;99915.16;;;11.38;100.00
64886;BME280;51514;52.206;5.114;2023-04-24T00:51:33;99909.78;;;11.38;100.00
64886;BME280;51514;52.206;5.114;2023-04-24T00:53:59;99910.44;;;11.40;100.00
64886;BME280;51514;52.206;5.114;2023-04-24T00:56:25;99916.66;;;11.41;100.00
64886;BME280;51514;52.206;5.114;2023-04-24T00:58:51;99917.69;;;11.40;100.00
64886;BME280;51514;52.206;5.114;2023-04-24T01:01:17;99918.88;;;11.37;100.00
64886;BME280;51514;52.206;5.114;2023-04-24T01:03:43;99923.25;;;11.38;100.00
64886;BME280;51514;52.206;5.114;2023-04-24T01:06:09;99929.06;;;11.35;100.00
64886;BME280;51514;52.206;5.114;2023-04-24T01:08:35;99929.25;;;11.33;100.00
64886;BME280;51514;52.206;5.114;2023-04-24T01:11:03;99925.41;;;11.28;100.00
64886;BME280;51514;52.206;5.114;2023-04-24T01:13:29;99924.22;;;11.30;100.00
64886;BME280;51514;52.206;5.114;2023-04-24T01:15:55;99926.53;;;11.33;100.00
64886;BME280;51514;52.206;5.114;2023-04-24T01:18:20;99926.53;;;11.33;100.00
64886;BME280;51514;52.206;5.114;2023-04-24T01:20:46;99926.38;;;11.35;100.00
64886;BME280;51514;52.206;5.114;2023-04-24T01:23:13;99931.94;;;11.33;100.00
64886;BME280;51514;52.206;5.114;2023-04-24T01:25:38;99928.22;;;11.34;100.00
64886;BME280;51514;52.206;5.114;2023-04-24T01:28:04;99931.19;;;11.40;100.00
64886;BME280;51514;52.206;5.114;2023-04-24T01:30:30;99928.13;;;11.43;100.00
64886;BME280;51514;52.206;5.114;2023-04-24T01:32:55;99922.72;;;11.43;100.00
64886;BME280;51514;52.206;5.114;2023-04-24T01:35:21;99931.84;;;11.42;100.00
64886;BME280;51514;52.206;5.114;2023-04-24T01:37:47;99927.75;;;11.46;100.00
64886;BME280;51514;52.206;5.114;2023-04-24T01:40:12;99923.63;;;11.50;100.00
64886;BME280;51514;52.206;5.114;2023-04-24T01:42:37;99930.53;;;11.52;100.00
64886;BME280;51514;52.206;5.114;2023-04-24T01:45:04;99937.59;;;11.53;100.00
64886;BME280;51514;52.206;5.114;2023-04-24T01:47:30;99930.72;;;11.51;100.00
64886;BME280;51514;52.206;5.114;2023-04-24T01:49:57;99942.72;;;11.48;100.00
64886;BME280;51514;52.206;5.114;2023-04-24T01:52:22;99941.50;;;11.51;100.00
64886;BME280;51514;52.206;5.114;2023-04-24T01:54:47;99937.97;;;11.50;100.00
64886;BME280;51514;52.206;5.114;2023-04-24T01:57:14;99940.66;;;11.50;100.00
64886;BME280;51514;52.206;5.114;2023-04-24T01:59:39;99950.19;;;11.46;100.00
64886;BME280;51514;52.206;5.114;2023-04-24T02:02:05;99941.25;;;11.46;100.00
64886;BME280;51514;52.206;5.114;2023-04-24T02:04:31;99936.22;;;11.43;100.00
64886;BME280;51514;52.206;5.114;2023-04-24T02:06:56;99940.59;;;11.44;100.00
64886;BME280;51514;52.206;5.114;2023-04-24T02:09:21;99941.88;;;11.48;100.00
64886;BME280;51514;52.206;5.114;2023-04-24T02:11:47;99943.13;;;11.45;100.00
64886;BME280;51514;52.206;5.114;2023-04-24T02:14:12;99941.63;;;11.43;100.00
64886;BME280;51514;52.206;5.114;2023-04-24T02:16:38;99946.72;;;11.38;99.79
64886;BME280;51514;52.206;5.114;2023-04-24T02:19:04;99950.25;;;11.38;100.00
64886;BME280;51514;52.206;5.114;2023-04-24T02:21:29;99950.44;;;11.37;99.51
64886;BME280;51514;52.206;5.114;2023-04-24T02:23:56;99951.28;;;11.37;99.50
64886;BME280;51514;52.206;5.114;2023-04-24T02:26:22;99956.50;;;11.39;99.79
64886;BME280;51514;52.206;5.114;2023-04-24T02:28:47;99955.47;;;11.40;99.65
64886;BME280;51514;52.206;5.114;2023-04-24T02:31:13;99951.75;;;11.41;99.30
64886;BME280;51514;52.206;5.114;2023-04-24T02:33:38;99948.28;;;11.47;99.55
64886;BME280;51514;52.206;5.114;2023-04-24T02:36:03;99946.00;;;11.44;99.11
64886;BME280;51514;52.206;5.114;2023-04-24T02:38:29;99951.38;;;11.44;99.22
64886;BME280;51514;52.206;5.114;2023-04-24T02:40:55;99960.50;;;11.43;99.37
64886;BME280;51514;52.206;5.114;2023-04-24T02:43:20;99953.91;;;11.45;99.63
64886;BME280;51514;52.206;5.114;2023-04-24T02:45:46;99954.34;;;11.49;99.13
64886;BME280;51514;52.206;5.114;2023-04-24T02:48:11;99950.19;;;11.46;99.37
64886;BME280;51514;52.206;5.114;2023-04-24T02:50:36;99952.03;;;11.46;99.59
64886;BME280;51514;52.206;5.114;2023-04-24T02:53:02;99953.25;;;11.43;99.72
64886;BME280;51514;52.206;5.114;2023-04-24T02:55:27;99953.91;;;11.45;99.81
64886;BME280;51514;52.206;5.114;2023-04-24T02:57:53;99946.00;;;11.44;99.23
64886;BME280;51514;52.206;5.114;2023-04-24T03:00:18;99953.44;;;11.42;99.57
64886;BME280;51514;52.206;5.114;2023-04-24T03:02:43;99945.50;;;11.40;99.23
64886;BME280;51514;52.206;5.114;2023-04-24T03:05:09;99949.16;;;11.32;99.74
64886;BME280;51514;52.206;5.114;2023-04-24T03:07:37;99949.25;;;11.39;99.71
64886;BME280;51514;52.206;5.114;2023-04-24T03:10:02;99942.16;;;11.38;99.89
64886;BME280;51514;52.206;5.114;2023-04-24T03:12:28;99950.91;;;11.40;100.00
64886;BME280;51514;52.206;5.114;2023-04-24T03:14:53;99952.22;;;11.44;100.00
64886;BME280;51514;52.206;5.114;2023-04-24T03:17:18;99956.03;;;11.50;100.00
64886;BME280;51514;52.206;5.114;2023-04-24T03:19:44;99944.56;;;11.48;100.00
64886;BME280;51514;52.206;5.114;2023-04-24T03:22:09;99947.94;;;11.50;99.91
64886;BME280;51514;52.206;5.114;2023-04-24T03:24:34;99950.09;;;11.54;99.79
64886;BME280;51514;52.206;5.114;2023-04-24T03:27:00;99944.50;;;11.56;99.56
64886;BME280;51514;52.206;5.114;2023-04-24T03:29:25;99949.44;;;11.52;98.85
64886;BME280;51514;52.206;5.114;2023-04-24T03:31:51;99953.69;;;11.47;99.33
64886;BME280;51514;52.206;5.114;2023-04-24T03:34:16;99949.34;;;11.46;99.54
64886;BME280;51514;52.206;5.114;2023-04-24T03:36:41;99955.78;;;11.45;99.23
64886;BME280;51514;52.206;5.114;2023-04-24T03:39:07;99948.69;;;11.44;99.47
64886;BME280;51514;52.206;5.114;2023-04-24T03:41:32;99944.97;;;11.45;98.69
64886;BME280;51514;52.206;5.114;2023-04-24T03:43:58;99945.59;;;11.47;98.83
64886;BME280;51514;52.206;5.114;2023-04-24T03:46:23;99942.72;;;11.48;99.14
64886;BME280;51514;52.206;5.114;2023-04-24T03:48:49;99941.25;;;11.46;98.78
64886;BME280;51514;52.206;5.114;2023-04-24T03:51:14;99951.00;;;11.47;98.22
64886;BME280;51514;52.206;5.114;2023-04-24T03:53:39;99945.59;;;11.47;97.68
64886;BME280;51514;52.206;5.114;2023-04-24T03:56:05;99943.56;;;11.49;98.24
64886;BME280;51514;52.206;5.114;2023-04-24T03:58:30;99942.72;;;11.48;97.82
64886;BME280;51514;52.206;5.114;2023-04-24T04:00:55;99946.91;;;11.51;98.14
64886;BME280;51514;52.206;5.114;2023-04-24T04:03:23;99952.66;;;11.48;97.98
64886;BME280;51514;52.206;5.114;2023-04-24T04:05:48;99959.56;;;11.50;98.08
64886;BME280;51514;52.206;5.114;2023-04-24T04:08:14;99955.66;;;11.53;98.19
64886;BME280;51514;52.206;5.114;2023-04-24T04:10:39;99955.66;;;11.53;98.02
64886;BME280;51514;52.206;5.114;2023-04-24T04:13:05;99955.47;;;11.54;97.66
64886;BME280;51514;52.206;5.114;2023-04-24T04:15:31;99960.22;;;11.52;97.73
64886;BME280;51514;52.206;5.114;2023-04-24T04:17:57;99967.13;;;11.55;98.26
64886;BME280;51514;52.206;5.114;2023-04-24T04:20:22;99967.50;;;11.52;98.02
64886;BME280;51514;52.206;5.114;2023-04-24T04:22:48;99971.88;;;11.53;97.85
64886;BME280;51514;52.206;5.114;2023-04-24T04:25:13;99973.44;;;11.47;97.97
64886;BME280;51514;52.206;5.114;2023-04-24T04:27:39;99978.19;;;11.45;98.55
64886;BME280;51514;52.206;5.114;2023-04-24T04:30:07;99974.66;;;11.45;98.37
64886;BME280;51514;52.206;5.114;2023-04-24T04:32:34;99982.75;;;11.45;98.02
64886;BME280;51514;52.206;5.114;2023-04-24T04:35:00;99984.22;;;11.47;97.89
64886;BME280;51514;52.206;5.114;2023-04-24T04:37:29;99992.31;;;11.47;97.75
64886;BME280;51514;52.206;5.114;2023-04-24T04:39:55;99992.31;;;11.47;97.29
64886;BME280;51514;52.206;5.114;2023-04-24T04:42:20;99990.84;;;11.45;97.00
64886;BME280;51514;52.206;5.114;2023-04-24T04:44:46;100000.81;;;11.44;97.17
64886;BME280;51514;52.206;5.114;2023-04-24T04:47:11;100011.63;;;11.44;97.37
64886;BME280;51514;52.206;5.114;2023-04-24T04:49:38;100005.38;;;11.44;96.94
64886;BME280;51514;52.206;5.114;2023-04-24T04:52:03;100022.22;;;11.46;96.80
64886;BME280;51514;52.206;5.114;2023-04-24T04:54:29;100026.78;;;11.45;96.61
64886;BME280;51514;52.206;5.114;2023-04-24T04:56:54;100029.00;;;11.42;96.24
64886;BME280;51514;52.206;5.114;2023-04-24T04:59:20;100026.97;;;11.44;96.80
64886;BME280;51514;52.206;5.114;2023-04-24T05:01:46;100038.66;;;11.36;96.14
64886;BME280;51514;52.206;5.114;2023-04-24T05:04:11;100032.81;;;11.32;96.64
64886;BME280;51514;52.206;5.114;2023-04-24T05:06:37;100038.66;;;11.36;96.57
64886;BME280;51514;52.206;5.114;2023-04-24T05:09:02;100046.97;;;11.34;96.40
64886;BME280;51514;52.206;5.114;2023-04-24T05:11:28;100049.66;;;11.34;96.69
64886;BME280;51514;52.206;5.114;2023-04-24T05:13:55;100055.44;;;11.31;96.83
64886;BME280;51514;52.206;5.114;2023-04-24T05:16:20;100067.91;;;11.32;96.21
64886;BME280;51514;52.206;5.114;2023-04-24T05:18:45;100067.91;;;11.32;96.49
64886;BME280;51514;52.206;5.114;2023-04-24T05:21:11;100071.25;;;11.34;95.86
64886;BME280;51514;52.206;5.114;2023-04-24T05:23:36;100076.28;;;11.38;95.61
64886;BME280;51514;52.206;5.114;2023-04-24T05:26:02;100077.28;;;11.37;95.40
64886;BME280;51514;52.206;5.114;2023-04-24T05:28:27;100068.75;;;11.33;95.32
64886;BME280;51514;52.206;5.114;2023-04-24T05:30:55;100070.59;;;11.32;95.91
64886;BME280;51514;52.206;5.114;2023-04-24T05:33:21;100090.88;;;11.28;95.47
64886;BME280;51514;52.206;5.114;2023-04-24T05:35:47;100083.13;;;11.25;95.80
64886;BME280;51514;52.206;5.114;2023-04-24T05:38:13;100096.00;;;11.23;95.76
64886;BME280;51514;52.206;5.114;2023-04-24T05:40:39;100091.13;;;11.19;95.93
64886;BME280;51514;52.206;5.114;2023-04-24T05:43:05;100101.25;;;11.17;96.19
64886;BME280;51514;52.206;5.114;2023-04-24T05:45:30;100100.78;;;11.13;95.79
64886;BME280;51514;52.206;5.114;2023-04-24T05:47:56;100105.34;;;11.13;96.35
64886;BME280;51514;52.206;5.114;2023-04-24T05:50:22;100120.19;;;11.09;96.31
64886;BME280;51514;52.206;5.114;2023-04-24T05:52:47;100115.28;;;11.12;97.35
64886;BME280;51514;52.206;5.114;2023-04-24T05:55:12;100122.72;;;11.10;96.99
64886;BME280;51514;52.206;5.114;2023-04-24T05:57:38;100128.47;;;11.07;96.92
64886;BME280;51514;52.206;5.114;2023-04-24T06:00:05;100132.56;;;11.03;97.41
64886;BME280;51514;52.206;5.114;2023-04-24T06:02:30;100143.88;;;10.98;97.74
64886;BME280;51514;52.206;5.114;2023-04-24T06:04:58;100148.78;;;10.95;98.32
64886;BME280;51514;52.206;5.114;2023-04-24T06:07:24;100156.41;;;10.91;98.56
64886;BME280;51514;52.206;5.114;2023-04-24T06:09:51;100168.69;;;10.94;98.83
64886;BME280;51514;52.206;5.114;2023-04-24T06:12:17;100173.59;;;10.90;98.53
64886;BME280;51514;52.206;5.114;2023-04-24T06:14:42;100176.13;;;10.92;98.96
64886;BME280;51514;52.206;5.114;2023-04-24T06:17:08;100186.25;;;10.90;98.65
64886;BME280;51514;52.206;5.114;2023-04-24T06:19:33;100190.81;;;10.89;98.53
64886;BME280;51514;52.206;5.114;2023-04-24T06:21:59;100206.19;;;10.81;97.63
64886;BME280;51514;52.206;5.114;2023-04-24T06:24:27;100206.53;;;10.78;98.02
64886;BME280;51514;52.206;5.114;2023-04-24T06:26:53;100214.13;;;10.74;98.05
64886;BME280;51514;52.206;5.114;2023-04-24T06:29:19;100226.94;;;10.72;98.24
64886;BME280;51514;52.206;5.114;2023-04-24T06:31:44;100224.06;;;10.74;98.21
64886;BME280;51514;52.206;5.114;2023-04-24T06:34:10;100234.38;;;10.70;97.77
64886;BME280;51514;52.206;5.114;2023-04-24T06:36:35;100237.59;;;10.66;97.85
64886;BME280;51514;52.206;5.114;2023-04-24T06:39:01;100252.78;;;10.58;97.52
64886;BME280;51514;52.206;5.114;2023-04-24T06:41:27;100255.16;;;10.53;97.88
64886;BME280;51514;52.206;5.114;2023-04-24T06:43:53;100262.25;;;10.46;97.40
64886;BME280;51514;52.206;5.114;2023-04-24T06:46:18;100268.31;;;10.48;97.36
64886;BME280;51514;52.206;5.114;2023-04-24T06:48:43;100279.09;;;10.48;97.00
64886;BME280;51514;52.206;5.114;2023-04-24T06:51:09;100276.75;;;10.45;96.32
64886;BME280;51514;52.206;5.114;2023-04-24T06:53:35;100289.38;;;10.45;96.41
64886;BME280;51514;52.206;5.114;2023-04-24T06:56:00;100292.38;;;10.50;96.62
64886;BME280;51514;52.206;5.114;2023-04-24T06:58:25;100297.97;;;10.48;96.60
64886;BME280;51514;52.206;5.114;2023-04-24T07:00:51;100302.53;;;10.48;96.19
64886;BME280;51514;52.206;5.114;2023-04-24T07:03:16;100303.66;;;10.53;96.16
64886;BME280;51514;52.206;5.114;2023-04-24T07:05:42;100314.78;;;10.50;96.53
64886;BME280;51514;52.206;5.114;2023-04-24T07:08:07;100306.69;;;10.50;96.18
64886;BME280;51514;52.206;5.114;2023-04-24T07:10:34;100314.44;;;10.53;95.94
64886;BME280;51514;52.206;5.114;2023-04-24T07:13:00;100324.22;;;10.54;96.07
64886;BME280;51514;52.206;5.114;2023-04-24T07:15:26;100335.00;;;10.54;95.26
64886;BME280;51514;52.206;5.114;2023-04-24T07:17:51;100335.50;;;10.50;95.74
64886;BME280;51514;52.206;5.114;2023-04-24T07:20:17;100336.34;;;10.50;96.61
64886;BME280;51514;52.206;5.114;2023-04-24T07:22:42;100344.44;;;10.50;95.92
64886;BME280;51514;52.206;5.114;2023-04-24T07:25:08;100347.16;;;10.58;96.43
64886;BME280;51514;52.206;5.114;2023-04-24T07:27:34;100351.31;;;10.61;96.94
64886;BME280;51514;52.206;5.114;2023-04-24T07:30:01;100348.84;;;10.59;96.62
64886;BME280;51514;52.206;5.114;2023-04-24T07:32:26;100356.06;;;10.59;96.16
64886;BME280;51514;52.206;5.114;2023-04-24T07:34:52;100367.69;;;10.59;95.96
64886;BME280;51514;52.206;5.114;2023-04-24T07:37:18;100374.09;;;10.67;96.25
64886;BME280;51514;52.206;5.114;2023-04-24T07:39:44;100386.38;;;10.61;96.70
64886;BME280;51514;52.206;5.114;2023-04-24T07:42:09;100392.78;;;10.52;96.56
64886;BME280;51514;52.206;5.114;2023-04-24T07:44:35;100399.34;;;10.49;96.85
64886;BME280;51514;52.206;5.114;2023-04-24T07:47:01;100401.25;;;10.49;96.92
64886;BME280;51514;52.206;5.114;2023-04-24T07:49:26;100415.22;;;10.36;96.82
64886;BME280;51514;52.206;5.114;2023-04-24T07:51:53;100415.06;;;10.38;97.66
64886;BME280;51514;52.206;5.114;2023-04-24T07:54:18;100412.84;;;10.33;97.82
64886;BME280;51514;52.206;5.114;2023-04-24T07:56:43;100428.66;;;10.28;98.00
64886;BME280;51514;52.206;5.114;2023-04-24T07:59:10;100431.72;;;10.25;97.87
64886;BME280;51514;52.206;5.114;2023-04-24T08:01:36;100429.84;;;10.26;97.93
64886;BME280;51514;52.206;5.114;2023-04-24T08:04:01;100437.41;;;10.22;98.08
64886;BME280;51514;52.206;5.114;2023-04-24T08:06:27;100444.97;;;10.18;97.59
64886;BME280;51514;52.206;5.114;2023-04-24T08:08:56;100455.56;;;10.12;97.62
64886;BME280;51514;52.206;5.114;2023-04-24T08:11:22;100458.44;;;10.18;98.05
64886;BME280;51514;52.206;5.114;2023-04-24T08:13:47;100460.63;;;10.15;97.59
64886;BME280;51514;52.206;5.114;2023-04-24T08:16:13;100470.56;;;10.14;97.89
64886;BME280;51514;52.206;5.114;2023-04-24T08:18:38;100479.31;;;10.16;97.60
64886;BME280;51514;52.206;5.114;2023-04-24T08:21:04;100484.19;;;10.13;96.79
64886;BME280;51514;52.206;5.114;2023-04-24T08:23:29;100491.94;;;10.16;96.88
64886;BME280;51514;52.206;5.114;2023-04-24T08:25:55;100496.66;;;10.14;95.77
64886;BME280;51514;52.206;5.114;2023-04-24T08:28:21;100504.38;;;10.17;95.14
64886;BME280;51514;52.206;5.114;2023-04-24T08:30:47;100507.78;;;10.19;95.13
64886;BME280;51514;52.206;5.114;2023-04-24T08:33:14;100517.56;;;10.20;94.50
64886;BME280;51514;52.206;5.114;2023-04-24T08:35:39;100516.25;;;10.24;94.30
64886;BME280;51514;52.206;5.114;2023-04-24T08:38:05;100526.50;;;10.29;93.75
64886;BME280;51514;52.206;5.114;2023-04-24T08:40:33;100519.97;;;10.31;92.74
64886;BME280;51514;52.206;5.114;2023-04-24T08:43:00;100521.66;;;10.32;91.29
64886;BME280;51514;52.206;5.114;2023-04-24T08:45:26;100530.06;;;10.29;91.08
64886;BME280;51514;52.206;5.114;2023-04-24T08:47:52;100526.34;;;10.30;90.70
64886;BME280;51514;52.206;5.114;2023-04-24T08:50:18;100531.06;;;10.28;90.62
64886;BME280;51514;52.206;5.114;2023-04-24T08:52:44;100532.09;;;10.35;91.46
64886;BME280;51514;52.206;5.114;2023-04-24T08:55:10;100538.84;;;10.39;90.09
64886;BME280;51514;52.206;5.114;2023-04-24T08:57:35;100560.91;;;10.43;90.90
64886;BME280;51514;52.206;5.114;2023-04-24T09:00:04;100555.69;;;10.41;89.36
64886;BME280;51514;52.206;5.114;2023-04-24T09:02:29;100566.31;;;10.43;89.67
64886;BME280;51514;52.206;5.114;2023-04-24T09:04:57;100564.63;;;10.42;89.19
64886;BME280;51514;52.206;5.114;2023-04-24T09:07:24;100558.22;;;10.35;87.51
64886;BME280;51514;52.206;5.114;2023-04-24T09:09:51;100569.69;;;10.45;88.66
64886;BME280;51514;52.206;5.114;2023-04-24T09:12:17;100562.25;;;10.39;87.11
64886;BME280;51514;52.206;5.114;2023-04-24T09:14:42;100570.53;;;10.45;87.60
64886;BME280;51514;52.206;5.114;2023-04-24T09:17:11;100575.09;;;10.53;87.29
64886;BME280;51514;52.206;5.114;2023-04-24T09:19:36;100568.22;;;10.58;88.70
64886;BME280;51514;52.206;5.114;2023-04-24T09:22:05;100574.25;;;10.60;86.92
64886;BME280;51514;52.206;5.114;2023-04-24T09:24:31;100576.63;;;10.64;86.73
64886;BME280;51514;52.206;5.114;2023-04-24T09:26:58;100581.69;;;10.58;85.31
64886;BME280;51514;52.206;5.114;2023-04-24T09:29:24;100582.69;;;10.57;84.15
64886;BME280;51514;52.206;5.114;2023-04-24T09:31:50;100583.88;;;10.63;84.79
64886;BME280;51514;52.206;5.114;2023-04-24T09:34:23;100594.66;;;10.63;85.31
64886;BME280;51514;52.206;5.114;2023-04-24T09:36:49;100592.47;;;10.58;83.72
64886;BME280;51514;52.206;5.114;2023-04-24T09:39:16;100599.72;;;10.66;83.87
64886;BME280;51514;52.206;5.114;2023-04-24T09:41:49;100602.59;;;10.73;83.48
64886;BME280;51514;52.206;5.114;2023-04-24T09:44:16;100604.47;;;10.80;84.16
64886;BME280;51514;52.206;5.114;2023-04-24T09:46:44;100612.56;;;10.80;83.02
64886;BME280;51514;52.206;5.114;2023-04-24T09:49:13;100609.69;;;10.82;82.52
64886;BME280;51514;52.206;5.114;2023-04-24T09:51:40;100616.97;;;10.81;80.64
64886;BME280;51514;52.206;5.114;2023-04-24T09:54:13;100616.59;;;10.76;81.07
64886;BME280;51514;52.206;5.114;2023-04-24T09:56:42;100631.09;;;10.75;80.44
64886;BME280;51514;52.206;5.114;2023-04-24T09:59:09;100638.31;;;10.67;81.02
64886;BME280;51514;52.206;5.114;2023-04-24T10:01:34;100644.69;;;10.57;81.61
64886;BME280;51514;52.206;5.114;2023-04-24T10:04:00;100645.72;;;10.56;82.35
64886;BME280;51514;52.206;5.114;2023-04-24T10:06:35;100645.03;;;10.63;83.05
64886;BME280;51514;52.206;5.114;2023-04-24T10:09:02;100647.59;;;10.72;82.02
64886;BME280;51514;52.206;5.114;2023-04-24T10:11:29;100640.38;;;10.81;82.52
64886;BME280;51514;52.206;5.114;2023-04-24T10:13:55;100651.88;;;10.91;80.98
64886;BME280;51514;52.206;5.114;2023-04-24T10:16:22;100649.19;;;10.99;81.81
64886;BME280;51514;52.206;5.114;2023-04-24T10:18:48;100643.63;;;11.17;82.96
64886;BME280;51514;52.206;5.114;2023-04-24T10:21:15;100651.91;;;11.31;81.54
64886;BME280;51514;52.206;5.114;2023-04-24T10:23:41;100645.50;;;11.41;80.91
64886;BME280;51514;52.206;5.114;2023-04-24T10:26:09;100646.50;;;11.40;81.90
64886;BME280;51514;52.206;5.114;2023-04-24T10:28:36;100654.09;;;11.28;80.35
64886;BME280;51514;52.206;5.114;2023-04-24T10:31:02;100652.25;;;11.20;80.19
64886;BME280;51514;52.206;5.114;2023-04-24T10:33:29;100657.47;;;11.14;80.68
64886;BME280;51514;52.206;5.114;2023-04-24T10:35:56;100652.88;;;11.14;80.23
64886;BME280;51514;52.206;5.114;2023-04-24T10:38:25;100666.38;;;11.06;79.54
64886;BME280;51514;52.206;5.114;2023-04-24T10:40:57;100670.75;;;10.99;80.96
64886;BME280;51514;52.206;5.114;2023-04-24T10:43:33;100670.75;;;10.99;82.61
64886;BME280;51514;52.206;5.114;2023-04-24T10:46:02;100673.59;;;10.89;83.63
64886;BME280;51514;52.206;5.114;2023-04-24T10:48:29;100683.53;;;10.81;83.86
64886;BME280;51514;52.206;5.114;2023-04-24T10:50:55;100694.50;;;10.79;84.47
64886;BME280;51514;52.206;5.114;2023-04-24T10:53:24;100702.75;;;10.86;84.87
64886;BME280;51514;52.206;5.114;2023-04-24T10:56:12;100696.19;;;10.80;85.91
64886;BME280;51514;52.206;5.114;2023-04-24T10:58:41;100694.97;;;10.83;85.83
64886;BME280;51514;52.206;5.114;2023-04-24T11:01:23;100695.34;;;10.88;87.41
64886;BME280;51514;52.206;5.114;2023-04-24T11:03:59;100698.59;;;11.00;87.17
64886;BME280;51514;52.206;5.114;2023-04-24T11:06:33;100702.66;;;11.28;85.31
64886;BME280;51514;52.206;5.114;2023-04-24T11:11:29;100705.25;;;11.54;78.29
64886;BME280;51514;52.206;5.114;2023-04-24T11:16:38;100714.34;;;11.61;77.33
64886;BME280;51514;52.206;5.114;2023-04-24T11:21:48;100717.25;;;11.84;77.21
64886;BME280;51514;52.206;5.114;2023-04-24T11:27:20;100725.31;;;11.92;75.38
64886;BME280;51514;52.206;5.114;2023-04-24T11:35:05;100718.19;;;12.31;76.82
64886;BME280;51514;52.206;5.114;2023-04-24T11:40:00;100731.06;;;12.68;74.84
64886;BME280;51514;52.206;5.114;2023-04-24T11:42:26;100738.28;;;12.84;73.11
64886;BME280;51514;52.206;5.114;2023-04-24T11:44:55;100735.78;;;12.74;72.18
64886;BME280;51514;52.206;5.114;2023-04-24T11:47:30;100725.50;;;12.62;71.04
64886;BME280;51514;52.206;5.114;2023-04-24T11:49:56;100734.50;;;12.54;71.49
64886;BME280;51514;52.206;5.114;2023-04-24T11:52:21;100732.81;;;12.45;70.25
64886;BME280;51514;52.206;5.114;2023-04-24T11:54:50;100752.47;;;12.39;71.22
64886;BME280;51514;52.206;5.114;2023-04-24T11:57:18;100753.84;;;12.27;70.83
64886;BME280;51514;52.206;5.114;2023-04-24T11:59:44;100761.13;;;12.18;68.95
64886;BME280;51514;52.206;5.114;2023-04-24T12:02:23;100761.31;;;12.09;66.87
64886;BME280;51514;52.206;5.114;2023-04-24T12:04:48;100761.31;;;12.09;69.08
64886;BME280;51514;52.206;5.114;2023-04-24T12:07:13;100767.72;;;12.07;67.63
64886;BME280;51514;52.206;5.114;2023-04-24T12:09:47;100770.75;;;12.04;68.46
64886;BME280;51514;52.206;5.114;2023-04-24T12:12:15;100784.63;;;12.10;67.02
64886;BME280;51514;52.206;5.114;2023-04-24T12:14:47;100773.94;;;12.16;67.73
64886;BME280;51514;52.206;5.114;2023-04-24T12:17:12;100770.09;;;12.11;67.17
64886;BME280;51514;52.206;5.114;2023-04-24T12:19:45;100792.22;;;12.06;67.68
64886;BME280;51514;52.206;5.114;2023-04-24T12:22:11;100778.19;;;12.02;69.18
64886;BME280;51514;52.206;5.114;2023-04-24T12:24:55;100791.38;;;11.97;69.05
64886;BME280;51514;52.206;5.114;2023-04-24T12:27:22;100792.03;;;11.91;68.24
64886;BME280;51514;52.206;5.114;2023-04-24T12:29:57;100802.16;;;11.81;68.11
64886;BME280;51514;52.206;5.114;2023-04-24T12:32:23;100803.47;;;11.69;69.79
64886;BME280;51514;52.206;5.114;2023-04-24T12:34:50;100818.66;;;11.62;71.31
64886;BME280;51514;52.206;5.114;2023-04-24T12:37:17;100835.00;;;11.52;73.32
64886;BME280;51514;52.206;5.114;2023-04-24T12:40:04;100822.00;;;11.48;74.70
64886;BME280;51514;52.206;5.114;2023-04-24T12:42:31;100830.41;;;11.37;73.41
64886;BME280;51514;52.206;5.114;2023-04-24T12:44:58;100834.25;;;11.26;72.74
64886;BME280;51514;52.206;5.114;2023-04-24T12:47:25;100833.06;;;11.28;73.17
64886;BME280;51514;52.206;5.114;2023-04-24T12:49:51;100836.63;;;11.37;73.28
64886;BME280;51514;52.206;5.114;2023-04-24T12:52:18;100839.38;;;11.45;73.16
64886;BME280;51514;52.206;5.114;2023-04-24T12:54:45;100830.75;;;11.42;72.11
64886;BME280;51514;52.206;5.114;2023-04-24T12:57:10;100837.34;;;11.47;72.17
64886;BME280;51514;52.206;5.114;2023-04-24T12:59:36;100837.22;;;11.57;71.72
64886;BME280;51514;52.206;5.114;2023-04-24T13:02:01;100837.03;;;11.58;71.06
64886;BME280;51514;52.206;5.114;2023-04-24T13:04:27;100838.56;;;11.61;70.14
64886;BME280;51514;52.206;5.114;2023-04-24T13:06:52;100837.56;;;11.62;70.82